sensor_id;sensor_type;location;lat;lon;timestamp;pressure;altitude;pressure_sealevel;temperature;humidity
65546;BME280;52177;55.968;37.498;2024-01-25T00:00:19;98517.97;;;0.22;84.90
65546;BME280;52177;55.968;37.498;2024-01-25T00:00:49;98517.16;;;0.22;84.92
65546;BME280;52177;55.968;37.498;2024-01-25T00:01:20;98516.16;;;0.23;84.98
65546;BME280;52177;55.968;37.498;2024-01-25T00:01:50;98503.19;;;0.21;85.08
65546;BME280;52177;55.968;37.498;2024-01-25T00:02:20;98513.00;;;0.19;85.23
65546;BME280;52177;55.968;37.498;2024-01-25T00:02:51;98511.34;;;0.18;85.40
65546;BME280;52177;55.968;37.498;2024-01-25T00:03:21;98508.72;;;0.18;85.38
65546;BME280;52177;55.968;37.498;2024-01-25T00:03:51;98509.41;;;0.20;85.40
65546;BME280;52177;55.968;37.498;2024-01-25T00:04:22;98503.47;;;0.18;85.48
65546;BME280;52177;55.968;37.498;2024-01-25T00:04:52;98513.84;;;0.19;85.50
65546;BME280;52177;55.968;37.498;2024-01-25T00:05:22;98513.00;;;0.19;85.58
65546;BME280;52177;55.968;37.498;2024-01-25T00:05:53;98508.59;;;0.19;85.54
65546;BME280;52177;55.968;37.498;2024-01-25T00:06:23;98505.00;;;0.20;85.30
65546;BME280;52177;55.968;37.498;2024-01-25T00:06:55;98508.44;;;0.21;85.56
65546;BME280;52177;55.968;37.498;2024-01-25T00:07:25;98500.03;;;0.17;85.54
65546;BME280;52177;55.968;37.498;2024-01-25T00:07:56;98500.88;;;0.18;85.69
65546;BME280;52177;55.968;37.498;2024-01-25T00:08:26;98505.16;;;0.19;85.71
65546;BME280;52177;55.968;37.498;2024-01-25T00:08:56;98497.28;;;0.19;85.67
65546;BME280;52177;55.968;37.498;2024-01-25T00:09:27;98499.91;;;0.19;85.73
65546;BME280;52177;55.968;37.498;2024-01-25T00:09:58;98504.31;;;0.18;85.82
65546;BME280;52177;55.968;37.498;2024-01-25T00:10:28;98498.25;;;0.18;85.74
65546;BME280;52177;55.968;37.498;2024-01-25T00:10:59;98499.91;;;0.19;85.90
65546;BME280;52177;55.968;37.498;2024-01-25T00:11:29;98502.53;;;0.19;86.03
65546;BME280;52177;55.968;37.498;2024-01-25T00:12:01;98492.19;;;0.17;86.09
65546;BME280;52177;55.968;37.498;2024-01-25T00:12:32;98493.16;;;0.16;86.23
65546;BME280;52177;55.968;37.498;2024-01-25T00:13:02;98500.88;;;0.18;86.21
65546;BME280;52177;55.968;37.498;2024-01-25T00:13:33;98496.59;;;0.17;86.27
65546;BME280;52177;55.968;37.498;2024-01-25T00:14:03;98499.22;;;0.17;86.30
65546;BME280;52177;55.968;37.498;2024-01-25T00:14:34;98498.25;;;0.18;86.37
65546;BME280;52177;55.968;37.498;2024-01-25T00:15:05;98497.28;;;0.19;86.30
65546;BME280;52177;55.968;37.498;2024-01-25T00:15:35;98493.81;;;0.18;86.38
65546;BME280;52177;55.968;37.498;2024-01-25T00:16:06;98492.06;;;0.19;86.45
65546;BME280;52177;55.968;37.498;2024-01-25T00:16:40;98492.06;;;0.19;86.42
65546;BME280;52177;55.968;37.498;2024-01-25T00:17:11;98488.44;;;0.20;86.43
65546;BME280;52177;55.968;37.498;2024-01-25T00:17:41;98492.88;;;0.19;86.55
65546;BME280;52177;55.968;37.498;2024-01-25T00:18:12;98483.34;;;0.18;86.46
65546;BME280;52177;55.968;37.498;2024-01-25T00:18:42;98488.31;;;0.22;86.62
65546;BME280;52177;55.968;37.498;2024-01-25T00:19:12;98488.16;;;0.23;86.51
65546;BME280;52177;55.968;37.498;2024-01-25T00:19:43;98481.16;;;0.24;86.46
65546;BME280;52177;55.968;37.498;2024-01-25T00:20:13;98480.28;;;0.23;86.57
65546;BME280;52177;55.968;37.498;2024-01-25T00:20:44;98481.97;;;0.24;86.57
65546;BME280;52177;55.968;37.498;2024-01-25T00:21:14;98481.97;;;0.24;86.52
65546;BME280;52177;55.968;37.498;2024-01-25T00:21:44;98475.91;;;0.24;86.40
65546;BME280;52177;55.968;37.498;2024-01-25T00:22:15;98480.28;;;0.23;86.43
65546;BME280;52177;55.968;37.498;2024-01-25T00:22:46;98476.84;;;0.23;86.49
65546;BME280;52177;55.968;37.498;2024-01-25T00:23:16;98473.28;;;0.24;86.48
65546;BME280;52177;55.968;37.498;2024-01-25T00:23:46;98475.06;;;0.23;86.42
65546;BME280;52177;55.968;37.498;2024-01-25T00:24:17;98476.84;;;0.23;86.49
65546;BME280;52177;55.968;37.498;2024-01-25T00:24:47;98477.69;;;0.23;86.50
65546;BME280;52177;55.968;37.498;2024-01-25T00:25:17;98473.41;;;0.22;86.48
65546;BME280;52177;55.968;37.498;2024-01-25T00:25:48;98478.78;;;0.20;86.55
65546;BME280;52177;55.968;37.498;2024-01-25T00:26:18;98474.38;;;0.21;86.64
65546;BME280;52177;55.968;37.498;2024-01-25T00:26:48;98482.38;;;0.19;86.72
65546;BME280;52177;55.968;37.498;2024-01-25T00:27:19;98478.94;;;0.19;86.79
65546;BME280;52177;55.968;37.498;2024-01-25T00:27:49;98474.66;;;0.18;86.80
65546;BME280;52177;55.968;37.498;2024-01-25T00:28:19;98478.94;;;0.19;86.83
65546;BME280;52177;55.968;37.498;2024-01-25T00:28:50;98474.53;;;0.19;86.76
65546;BME280;52177;55.968;37.498;2024-01-25T00:29:20;98478.94;;;0.19;86.83
65546;BME280;52177;55.968;37.498;2024-01-25T00:29:50;98477.16;;;0.19;86.87
65546;BME280;52177;55.968;37.498;2024-01-25T00:30:21;98471.09;;;0.19;86.88
65546;BME280;52177;55.968;37.498;2024-01-25T00:30:51;98472.72;;;0.20;86.92
65546;BME280;52177;55.968;37.498;2024-01-25T00:31:21;98472.72;;;0.20;86.86
65546;BME280;52177;55.968;37.498;2024-01-25T00:31:52;98475.34;;;0.20;86.83
65546;BME280;52177;55.968;37.498;2024-01-25T00:32:22;98474.38;;;0.21;86.80
65546;BME280;52177;55.968;37.498;2024-01-25T00:32:52;98477.16;;;0.19;86.91
65546;BME280;52177;55.968;37.498;2024-01-25T00:33:23;98477.28;;;0.18;86.92
65546;BME280;52177;55.968;37.498;2024-01-25T00:33:53;98469.41;;;0.18;87.04
65546;BME280;52177;55.968;37.498;2024-01-25T00:34:24;98472.19;;;0.16;87.08
65546;BME280;52177;55.968;37.498;2024-01-25T00:34:55;98468.72;;;0.16;87.00
65546;BME280;52177;55.968;37.498;2024-01-25T00:35:25;98470.53;;;0.15;87.19
65546;BME280;52177;55.968;37.498;2024-01-25T00:35:56;98472.19;;;0.16;87.27
65546;BME280;52177;55.968;37.498;2024-01-25T00:36:27;98474.13;;;0.14;87.20
65546;BME280;52177;55.968;37.498;2024-01-25T00:36:57;98464.47;;;0.15;87.22
65546;BME280;52177;55.968;37.498;2024-01-25T00:37:28;98468.72;;;0.16;87.36
65546;BME280;52177;55.968;37.498;2024-01-25T00:37:59;98472.19;;;0.16;87.36
65546;BME280;52177;55.968;37.498;2024-01-25T00:38:30;98462.53;;;0.17;87.34
65546;BME280;52177;55.968;37.498;2024-01-25T00:39:01;98467.78;;;0.17;87.47
65546;BME280;52177;55.968;37.498;2024-01-25T00:39:31;98465.97;;;0.17;87.46
65546;BME280;52177;55.968;37.498;2024-01-25T00:40:02;98458.81;;;0.19;87.34
65546;BME280;52177;55.968;37.498;2024-01-25T00:40:33;98468.47;;;0.19;87.26
65546;BME280;52177;55.968;37.498;2024-01-25T00:41:06;98465.84;;;0.19;87.31
65546;BME280;52177;55.968;37.498;2024-01-25T00:41:40;98464.88;;;0.20;87.08
65546;BME280;52177;55.968;37.498;2024-01-25T00:42:12;98461.44;;;0.19;87.09
65546;BME280;52177;55.968;37.498;2024-01-25T00:42:46;98459.75;;;0.18;87.06
65546;BME280;52177;55.968;37.498;2024-01-25T00:43:23;98462.53;;;0.17;87.20
65546;BME280;52177;55.968;37.498;2024-01-25T00:43:54;98454.38;;;0.20;87.19
65546;BME280;52177;55.968;37.498;2024-01-25T00:44:24;98456.03;;;0.21;87.02
65546;BME280;52177;55.968;37.498;2024-01-25T00:44:55;98454.50;;;0.18;87.07
65546;BME280;52177;55.968;37.498;2024-01-25T00:45:25;98453.56;;;0.19;87.07
65546;BME280;52177;55.968;37.498;2024-01-25T00:45:56;98454.38;;;0.20;87.13
65546;BME280;52177;55.968;37.498;2024-01-25T00:46:27;98463.34;;;0.17;87.16
65546;BME280;52177;55.968;37.498;2024-01-25T00:46:57;98465.84;;;0.19;87.11
65546;BME280;52177;55.968;37.498;2024-01-25T00:47:28;98457.81;;;0.20;87.13
65546;BME280;52177;55.968;37.498;2024-01-25T00:47:59;98452.31;;;0.24;87.06
65546;BME280;52177;55.968;37.498;2024-01-25T00:48:29;98448.84;;;0.23;86.88
65546;BME280;52177;55.968;37.498;2024-01-25T00:49:00;98447.06;;;0.24;86.91
65546;BME280;52177;55.968;37.498;2024-01-25T00:49:31;98452.44;;;0.22;86.81
65546;BME280;52177;55.968;37.498;2024-01-25T00:50:01;98453.41;;;0.21;86.77
65546;BME280;52177;55.968;37.498;2024-01-25T00:50:32;98447.50;;;0.19;86.77
65546;BME280;52177;55.968;37.498;2024-01-25T00:51:05;98442.25;;;0.19;86.72
65546;BME280;52177;55.968;37.498;2024-01-25T00:51:37;98453.56;;;0.19;86.71
65546;BME280;52177;55.968;37.498;2024-01-25T00:52:07;98442.25;;;0.19;86.78
65546;BME280;52177;55.968;37.498;2024-01-25T00:52:38;98445.84;;;0.18;86.66
65546;BME280;52177;55.968;37.498;2024-01-25T00:53:09;98444.19;;;0.17;86.79
65546;BME280;52177;55.968;37.498;2024-01-25T00:53:40;98440.59;;;0.18;86.69
65546;BME280;52177;55.968;37.498;2024-01-25T00:54:10;98437.97;;;0.18;86.70
65546;BME280;52177;55.968;37.498;2024-01-25T00:54:41;98442.38;;;0.17;86.79
65546;BME280;52177;55.968;37.498;2024-01-25T00:55:12;98439.78;;;0.17;86.74
65546;BME280;52177;55.968;37.498;2024-01-25T00:55:43;98439.78;;;0.17;86.78
65546;BME280;52177;55.968;37.498;2024-01-25T00:56:13;98438.78;;;0.18;86.79
65546;BME280;52177;55.968;37.498;2024-01-25T00:56:44;98443.22;;;0.18;86.74
65546;BME280;52177;55.968;37.498;2024-01-25T00:57:15;98438.78;;;0.18;86.76
65546;BME280;52177;55.968;37.498;2024-01-25T00:57:45;98447.34;;;0.20;86.92
65546;BME280;52177;55.968;37.498;2024-01-25T00:58:16;98439.63;;;0.19;87.03
65546;BME280;52177;55.968;37.498;2024-01-25T00:58:47;98444.72;;;0.20;86.79
65546;BME280;52177;55.968;37.498;2024-01-25T00:59:17;98437.69;;;0.21;86.87
65546;BME280;52177;55.968;37.498;2024-01-25T00:59:48;98445.53;;;0.21;86.84
65546;BME280;52177;55.968;37.498;2024-01-25T01:00:19;98436.72;;;0.22;86.92
65546;BME280;52177;55.968;37.498;2024-01-25T01:00:50;98437.53;;;0.23;86.84
65546;BME280;52177;55.968;37.498;2024-01-25T01:01:21;98437.41;;;0.24;86.84
65546;BME280;52177;55.968;37.498;2024-01-25T01:01:55;98437.25;;;0.26;86.81
65546;BME280;52177;55.968;37.498;2024-01-25T01:02:27;98431.88;;;0.27;86.79
65546;BME280;52177;55.968;37.498;2024-01-25T01:03:03;98433.69;;;0.27;86.69
65546;BME280;52177;55.968;37.498;2024-01-25T01:03:35;98433.56;;;0.28;86.58
65546;BME280;52177;55.968;37.498;2024-01-25T01:04:05;98437.13;;;0.27;86.58
65546;BME280;52177;55.968;37.498;2024-01-25T01:04:36;98432.84;;;0.26;86.62
65546;BME280;52177;55.968;37.498;2024-01-25T01:05:07;98431.06;;;0.27;86.58
65546;BME280;52177;55.968;37.498;2024-01-25T01:05:38;98433.56;;;0.28;86.55
65546;BME280;52177;55.968;37.498;2024-01-25T01:06:09;98433.00;;;0.25;86.61
65546;BME280;52177;55.968;37.498;2024-01-25T01:06:40;98435.63;;;0.25;86.57
65546;BME280;52177;55.968;37.498;2024-01-25T01:07:10;98432.16;;;0.24;86.60
65546;BME280;52177;55.968;37.498;2024-01-25T01:07:41;98425.00;;;0.26;86.59
65546;BME280;52177;55.968;37.498;2024-01-25T01:08:12;98433.69;;;0.27;86.62
65546;BME280;52177;55.968;37.498;2024-01-25T01:08:42;98430.06;;;0.28;86.76
65546;BME280;52177;55.968;37.498;2024-01-25T01:09:13;98422.91;;;0.30;86.59
65546;BME280;52177;55.968;37.498;2024-01-25T01:09:43;98425.38;;;0.31;86.56
65546;BME280;52177;55.968;37.498;2024-01-25T01:10:14;98427.19;;;0.31;86.57
65546;BME280;52177;55.968;37.498;2024-01-25T01:10:44;98424.56;;;0.31;86.47
65546;BME280;52177;55.968;37.498;2024-01-25T01:11:14;98423.72;;;0.30;86.57
65546;BME280;52177;55.968;37.498;2024-01-25T01:11:45;98422.78;;;0.31;86.53
65546;BME280;52177;55.968;37.498;2024-01-25T01:12:15;98417.53;;;0.31;86.55
65546;BME280;52177;55.968;37.498;2024-01-25T01:12:46;98414.91;;;0.31;86.57
65546;BME280;52177;55.968;37.498;2024-01-25T01:13:17;98415.59;;;0.33;86.54
65546;BME280;52177;55.968;37.498;2024-01-25T01:13:47;98414.78;;;0.33;86.50
65546;BME280;52177;55.968;37.498;2024-01-25T01:14:18;98415.59;;;0.33;86.58
65546;BME280;52177;55.968;37.498;2024-01-25T01:14:48;98412.97;;;0.33;86.48
65546;BME280;52177;55.968;37.498;2024-01-25T01:15:18;98415.59;;;0.33;86.49
65546;BME280;52177;55.968;37.498;2024-01-25T01:15:49;98417.22;;;0.34;86.39
65546;BME280;52177;55.968;37.498;2024-01-25T01:16:19;98408.56;;;0.34;86.39
65546;BME280;52177;55.968;37.498;2024-01-25T01:16:50;98414.59;;;0.34;86.45
65546;BME280;52177;55.968;37.498;2024-01-25T01:17:21;98412.97;;;0.33;86.48
65546;BME280;52177;55.968;37.498;2024-01-25T01:17:51;98412.97;;;0.33;86.42
65546;BME280;52177;55.968;37.498;2024-01-25T01:18:22;98409.38;;;0.34;86.44
65546;BME280;52177;55.968;37.498;2024-01-25T01:18:52;98409.38;;;0.34;86.54
65546;BME280;52177;55.968;37.498;2024-01-25T01:19:22;98413.78;;;0.34;86.43
65546;BME280;52177;55.968;37.498;2024-01-25T01:19:53;98408.41;;;0.35;86.37
65546;BME280;52177;55.968;37.498;2024-01-25T01:20:23;98410.19;;;0.35;86.33
65546;BME280;52177;55.968;37.498;2024-01-25T01:20:53;98408.41;;;0.35;86.42
65546;BME280;52177;55.968;37.498;2024-01-25T01:21:24;98411.16;;;0.34;86.49
65546;BME280;52177;55.968;37.498;2024-01-25T01:21:54;98406.91;;;0.33;86.42
65546;BME280;52177;55.968;37.498;2024-01-25T01:22:24;98412.16;;;0.33;86.36
65546;BME280;52177;55.968;37.498;2024-01-25T01:22:55;98399.88;;;0.33;86.43
65546;BME280;52177;55.968;37.498;2024-01-25T01:23:25;98407.72;;;0.33;86.46
65546;BME280;52177;55.968;37.498;2024-01-25T01:23:55;98402.31;;;0.35;86.41
65546;BME280;52177;55.968;37.498;2024-01-25T01:24:26;98403.31;;;0.34;86.43
65546;BME280;52177;55.968;37.498;2024-01-25T01:24:57;98403.31;;;0.34;86.49
65546;BME280;52177;55.968;37.498;2024-01-25T01:25:27;98403.31;;;0.34;86.52
65546;BME280;52177;55.968;37.498;2024-01-25T01:25:58;98406.75;;;0.34;86.57
65546;BME280;52177;55.968;37.498;2024-01-25T01:26:28;98404.13;;;0.34;86.47
65546;BME280;52177;55.968;37.498;2024-01-25T01:26:58;98397.94;;;0.35;86.55
65546;BME280;52177;55.968;37.498;2024-01-25T01:27:29;98403.00;;;0.37;86.62
65546;BME280;52177;55.968;37.498;2024-01-25T01:27:59;98406.44;;;0.37;86.54
65546;BME280;52177;55.968;37.498;2024-01-25T01:28:30;98395.97;;;0.37;86.44
65546;BME280;52177;55.968;37.498;2024-01-25T01:29:00;98392.38;;;0.38;86.48
65546;BME280;52177;55.968;37.498;2024-01-25T01:29:30;98394.03;;;0.39;86.38
65546;BME280;52177;55.968;37.498;2024-01-25T01:30:01;98394.19;;;0.38;86.33
65546;BME280;52177;55.968;37.498;2024-01-25T01:30:31;98399.56;;;0.36;86.32
65546;BME280;52177;55.968;37.498;2024-01-25T01:31:01;98395.31;;;0.35;86.30
65546;BME280;52177;55.968;37.498;2024-01-25T01:31:32;98389.91;;;0.37;86.41
65546;BME280;52177;55.968;37.498;2024-01-25T01:32:03;98393.34;;;0.37;86.35
65546;BME280;52177;55.968;37.498;2024-01-25T01:32:33;98398.59;;;0.37;86.38
65546;BME280;52177;55.968;37.498;2024-01-25T01:33:04;98396.81;;;0.38;86.46
65546;BME280;52177;55.968;37.498;2024-01-25T01:33:34;98393.22;;;0.39;86.33
65546;BME280;52177;55.968;37.498;2024-01-25T01:34:05;98399.28;;;0.39;86.45
65546;BME280;52177;55.968;37.498;2024-01-25T01:34:35;98395.84;;;0.39;86.41
65546;BME280;52177;55.968;37.498;2024-01-25T01:35:05;98391.41;;;0.39;86.43
65546;BME280;52177;55.968;37.498;2024-01-25T01:35:36;98388.94;;;0.38;86.42
65546;BME280;52177;55.968;37.498;2024-01-25T01:36:06;98391.56;;;0.38;86.31
65546;BME280;52177;55.968;37.498;2024-01-25T01:36:37;98390.59;;;0.39;86.25
65546;BME280;52177;55.968;37.498;2024-01-25T01:37:07;98391.41;;;0.39;86.27
65546;BME280;52177;55.968;37.498;2024-01-25T01:37:37;98378.31;;;0.39;86.23
65546;BME280;52177;55.968;37.498;2024-01-25T01:38:08;98381.91;;;0.38;86.25
65546;BME280;52177;55.968;37.498;2024-01-25T01:38:38;98387.00;;;0.40;86.29
65546;BME280;52177;55.968;37.498;2024-01-25T01:39:09;98385.22;;;0.40;86.23
65546;BME280;52177;55.968;37.498;2024-01-25T01:39:39;98381.78;;;0.40;85.97
65546;BME280;52177;55.968;37.498;2024-01-25T01:40:10;98385.34;;;0.39;86.10
65546;BME280;52177;55.968;37.498;2024-01-25T01:40:40;98386.34;;;0.38;86.09
65546;BME280;52177;55.968;37.498;2024-01-25T01:41:11;98384.53;;;0.38;86.12
65546;BME280;52177;55.968;37.498;2024-01-25T01:41:47;98381.09;;;0.38;85.89
65546;BME280;52177;55.968;37.498;2024-01-25T01:42:18;98381.09;;;0.38;86.09
65546;BME280;52177;55.968;37.498;2024-01-25T01:42:48;98381.09;;;0.38;85.99
65546;BME280;52177;55.968;37.498;2024-01-25T01:43:19;98385.47;;;0.37;85.98
65546;BME280;52177;55.968;37.498;2024-01-25T01:43:53;98387.97;;;0.39;85.97
65546;BME280;52177;55.968;37.498;2024-01-25T01:44:24;98377.47;;;0.39;85.83
65546;BME280;52177;55.968;37.498;2024-01-25T01:44:54;98385.34;;;0.39;85.78
65546;BME280;52177;55.968;37.498;2024-01-25T01:45:24;98383.53;;;0.39;85.93
65546;BME280;52177;55.968;37.498;2024-01-25T01:46:01;98382.72;;;0.39;85.85
65546;BME280;52177;55.968;37.498;2024-01-25T01:46:35;98382.84;;;0.37;85.77
65546;BME280;52177;55.968;37.498;2024-01-25T01:47:07;98389.78;;;0.38;85.81
65546;BME280;52177;55.968;37.498;2024-01-25T01:47:37;98376.66;;;0.38;85.70
65546;BME280;52177;55.968;37.498;2024-01-25T01:48:08;98381.09;;;0.38;85.82
65546;BME280;52177;55.968;37.498;2024-01-25T01:48:39;98385.47;;;0.37;85.83
65546;BME280;52177;55.968;37.498;2024-01-25T01:49:11;98387.16;;;0.38;85.73
65546;BME280;52177;55.968;37.498;2024-01-25T01:49:42;98391.56;;;0.38;85.83
65546;BME280;52177;55.968;37.498;2024-01-25T01:50:13;98390.72;;;0.37;85.71
65546;BME280;52177;55.968;37.498;2024-01-25T01:50:43;98391.28;;;0.41;85.74
65546;BME280;52177;55.968;37.498;2024-01-25T01:51:14;98390.47;;;0.40;85.69
65546;BME280;52177;55.968;37.498;2024-01-25T01:51:45;98394.03;;;0.39;85.74
65546;BME280;52177;55.968;37.498;2024-01-25T01:52:16;98389.34;;;0.43;85.71
65546;BME280;52177;55.968;37.498;2024-01-25T01:52:49;98382.44;;;0.42;85.62
65546;BME280;52177;55.968;37.498;2024-01-25T01:53:19;98383.28;;;0.43;85.53
65546;BME280;52177;55.968;37.498;2024-01-25T01:53:50;98384.22;;;0.41;85.46
65546;BME280;52177;55.968;37.498;2024-01-25T01:54:21;98389.34;;;0.43;85.47
65546;BME280;52177;55.968;37.498;2024-01-25T01:54:51;98380.66;;;0.43;85.51
65546;BME280;52177;55.968;37.498;2024-01-25T01:55:22;98383.28;;;0.43;85.37
65546;BME280;52177;55.968;37.498;2024-01-25T01:55:53;98379.81;;;0.42;85.41
65546;BME280;52177;55.968;37.498;2024-01-25T01:56:27;98382.44;;;0.42;85.37
65546;BME280;52177;55.968;37.498;2024-01-25T01:56:58;98378.84;;;0.43;85.26
65546;BME280;52177;55.968;37.498;2024-01-25T01:57:29;98378.84;;;0.43;85.31
65546;BME280;52177;55.968;37.498;2024-01-25T01:57:59;98383.28;;;0.43;85.29
65546;BME280;52177;55.968;37.498;2024-01-25T01:58:31;98382.16;;;0.45;85.18
65546;BME280;52177;55.968;37.498;2024-01-25T01:59:04;98373.47;;;0.45;85.12
65546;BME280;52177;55.968;37.498;2024-01-25T01:59:35;98382.28;;;0.44;85.02
65546;BME280;52177;55.968;37.498;2024-01-25T02:00:09;98378.84;;;0.43;84.95
65546;BME280;52177;55.968;37.498;2024-01-25T02:00:40;98379.66;;;0.44;85.15
65546;BME280;52177;55.968;37.498;2024-01-25T02:01:13;98384.09;;;0.43;85.02
65546;BME280;52177;55.968;37.498;2024-01-25T02:01:43;98374.28;;;0.45;85.00
65546;BME280;52177;55.968;37.498;2024-01-25T02:02:13;98374.44;;;0.44;84.81
65546;BME280;52177;55.968;37.498;2024-01-25T02:02:44;98378.72;;;0.45;84.73
65546;BME280;52177;55.968;37.498;2024-01-25T02:03:15;98377.19;;;0.42;84.62
65546;BME280;52177;55.968;37.498;2024-01-25T02:03:45;98377.19;;;0.42;84.57
65546;BME280;52177;55.968;37.498;2024-01-25T02:04:15;98373.75;;;0.41;84.52
65546;BME280;52177;55.968;37.498;2024-01-25T02:04:46;98377.19;;;0.42;84.57
65546;BME280;52177;55.968;37.498;2024-01-25T02:05:16;98371.13;;;0.41;84.54
65546;BME280;52177;55.968;37.498;2024-01-25T02:05:47;98369.47;;;0.40;84.50
65546;BME280;52177;55.968;37.498;2024-01-25T02:06:18;98376.38;;;0.41;84.48
65546;BME280;52177;55.968;37.498;2024-01-25T02:06:48;98369.31;;;0.42;84.40
65546;BME280;52177;55.968;37.498;2024-01-25T02:07:19;98372.78;;;0.43;84.41
65546;BME280;52177;55.968;37.498;2024-01-25T02:07:49;98372.09;;;0.40;84.46
65546;BME280;52177;55.968;37.498;2024-01-25T02:08:20;98376.22;;;0.43;84.45
65546;BME280;52177;55.968;37.498;2024-01-25T02:08:51;98374.72;;;0.40;84.48
65546;BME280;52177;55.968;37.498;2024-01-25T02:09:23;98381.59;;;0.41;84.28
65546;BME280;52177;55.968;37.498;2024-01-25T02:09:53;98376.38;;;0.41;84.40
65546;BME280;52177;55.968;37.498;2024-01-25T02:10:23;98374.44;;;0.44;84.34
65546;BME280;52177;55.968;37.498;2024-01-25T02:10:54;98374.56;;;0.42;84.29
65546;BME280;52177;55.968;37.498;2024-01-25T02:11:25;98376.91;;;0.45;84.26
65546;BME280;52177;55.968;37.498;2024-01-25T02:12:02;98374.13;;;0.47;84.03
65546;BME280;52177;55.968;37.498;2024-01-25T02:12:32;98371.66;;;0.45;83.89
65546;BME280;52177;55.968;37.498;2024-01-25T02:13:03;98372.63;;;0.44;83.84
65546;BME280;52177;55.968;37.498;2024-01-25T02:13:33;98380.34;;;0.46;83.66
65546;BME280;52177;55.968;37.498;2024-01-25T02:14:03;98366.00;;;0.50;83.52
65546;BME280;52177;55.968;37.498;2024-01-25T02:14:34;98368.06;;;0.46;83.33
65546;BME280;52177;55.968;37.498;2024-01-25T02:15:05;98367.25;;;0.46;83.20
65546;BME280;52177;55.968;37.498;2024-01-25T02:15:35;98363.94;;;0.44;83.25
65546;BME280;52177;55.968;37.498;2024-01-25T02:16:07;98371.81;;;0.44;83.36
65546;BME280;52177;55.968;37.498;2024-01-25T02:16:38;98372.63;;;0.44;83.38
65546;BME280;52177;55.968;37.498;2024-01-25T02:17:09;98370.84;;;0.45;83.41
65546;BME280;52177;55.968;37.498;2024-01-25T02:17:39;98362.69;;;0.48;83.40
65546;BME280;52177;55.968;37.498;2024-01-25T02:18:10;98368.88;;;0.47;83.35
65546;BME280;52177;55.968;37.498;2024-01-25T02:18:41;98369.88;;;0.46;83.17
65546;BME280;52177;55.968;37.498;2024-01-25T02:19:11;98370.84;;;0.45;83.17
65546;BME280;52177;55.968;37.498;2024-01-25T02:19:42;98371.28;;;0.40;83.03
65546;BME280;52177;55.968;37.498;2024-01-25T02:20:12;98369.63;;;0.39;83.09
65546;BME280;52177;55.968;37.498;2024-01-25T02:20:42;98374.88;;;0.39;83.04
65546;BME280;52177;55.968;37.498;2024-01-25T02:21:13;98371.41;;;0.38;82.96
65546;BME280;52177;55.968;37.498;2024-01-25T02:21:44;98373.91;;;0.40;83.09
65546;BME280;52177;55.968;37.498;2024-01-25T02:22:19;98367.81;;;0.39;83.02
65546;BME280;52177;55.968;37.498;2024-01-25T02:22:49;98370.31;;;0.41;82.98
65546;BME280;52177;55.968;37.498;2024-01-25T02:23:20;98371.94;;;0.42;82.92
65546;BME280;52177;55.968;37.498;2024-01-25T02:23:50;98373.75;;;0.41;82.84
65546;BME280;52177;55.968;37.498;2024-01-25T02:24:20;98373.75;;;0.41;82.89
65546;BME280;52177;55.968;37.498;2024-01-25T02:24:51;98365.88;;;0.41;82.91
65546;BME280;52177;55.968;37.498;2024-01-25T02:25:21;98368.22;;;0.45;83.01
65546;BME280;52177;55.968;37.498;2024-01-25T02:25:51;98365.75;;;0.43;82.88
65546;BME280;52177;55.968;37.498;2024-01-25T02:26:22;98370.84;;;0.45;82.78
65546;BME280;52177;55.968;37.498;2024-01-25T02:26:52;98368.22;;;0.45;82.88
65546;BME280;52177;55.968;37.498;2024-01-25T02:27:22;98374.28;;;0.45;82.81
65546;BME280;52177;55.968;37.498;2024-01-25T02:27:53;98368.22;;;0.45;82.73
65546;BME280;52177;55.968;37.498;2024-01-25T02:28:23;98375.25;;;0.44;82.57
65546;BME280;52177;55.968;37.498;2024-01-25T02:28:53;98370.00;;;0.44;82.64
65546;BME280;52177;55.968;37.498;2024-01-25T02:29:24;98371.66;;;0.45;82.78
65546;BME280;52177;55.968;37.498;2024-01-25T02:29:54;98376.09;;;0.45;82.61
65546;BME280;52177;55.968;37.498;2024-01-25T02:30:24;98367.25;;;0.46;82.52
65546;BME280;52177;55.968;37.498;2024-01-25T02:30:55;98369.19;;;0.44;82.39
65546;BME280;52177;55.968;37.498;2024-01-25T02:31:25;98362.13;;;0.44;82.32
65546;BME280;52177;55.968;37.498;2024-01-25T02:31:55;98368.22;;;0.45;82.19
65546;BME280;52177;55.968;37.498;2024-01-25T02:32:26;98369.19;;;0.44;82.16
65546;BME280;52177;55.968;37.498;2024-01-25T02:32:56;98379.28;;;0.38;81.95
65546;BME280;52177;55.968;37.498;2024-01-25T02:33:26;98367.00;;;0.39;82.03
65546;BME280;52177;55.968;37.498;2024-01-25T02:33:57;98370.59;;;0.38;81.77
65546;BME280;52177;55.968;37.498;2024-01-25T02:34:27;98372.38;;;0.37;81.80
65546;BME280;52177;55.968;37.498;2024-01-25T02:34:57;98375.00;;;0.37;81.83
65546;BME280;52177;55.968;37.498;2024-01-25T02:35:28;98369.63;;;0.39;82.11
65546;BME280;52177;55.968;37.498;2024-01-25T02:35:58;98375.69;;;0.39;81.92
65546;BME280;52177;55.968;37.498;2024-01-25T02:36:28;98373.22;;;0.38;82.00
65546;BME280;52177;55.968;37.498;2024-01-25T02:36:59;98375.84;;;0.38;81.93
65546;BME280;52177;55.968;37.498;2024-01-25T02:37:29;98371.41;;;0.38;82.15
65546;BME280;52177;55.968;37.498;2024-01-25T02:37:59;98372.25;;;0.39;82.02
65546;BME280;52177;55.968;37.498;2024-01-25T02:38:30;98369.63;;;0.39;82.13
65546;BME280;52177;55.968;37.498;2024-01-25T02:39:00;98364.25;;;0.40;82.14
65546;BME280;52177;55.968;37.498;2024-01-25T02:39:30;98371.94;;;0.42;82.10
65546;BME280;52177;55.968;37.498;2024-01-25T02:40:01;98371.13;;;0.41;82.26
65546;BME280;52177;55.968;37.498;2024-01-25T02:40:31;98373.75;;;0.41;82.22
65546;BME280;52177;55.968;37.498;2024-01-25T02:41:02;98375.41;;;0.43;82.36
65546;BME280;52177;55.968;37.498;2024-01-25T02:41:32;98359.00;;;0.40;82.47
65546;BME280;52177;55.968;37.498;2024-01-25T02:42:03;98363.44;;;0.40;82.53
65546;BME280;52177;55.968;37.498;2024-01-25T02:42:33;98365.19;;;0.39;82.65
65546;BME280;52177;55.968;37.498;2024-01-25T02:43:03;98374.56;;;0.42;82.66